createdAt,value
2023-02-01T00:01:33.351Z,99.90
2023-02-01T00:04:04.492Z,99.90
2023-02-01T00:06:38.065Z,99.90
2023-02-01T00:09:08.888Z,99.90
2023-02-01T00:11:39.631Z,99.90
2023-02-01T00:14:21.001Z,99.90
2023-02-01T00:16:51.751Z,99.90
2023-02-01T00:19:22.642Z,99.90
2023-02-01T00:21:55.933Z,99.90
2023-02-01T00:24:29.323Z,99.90
2023-02-01T00:27:02.924Z,99.90
2023-02-01T00:29:38.205Z,99.90
2023-02-01T00:32:09.332Z,99.90
2023-02-01T00:34:42.896Z,99.90
2023-02-01T00:37:16.285Z,99.90
2023-02-01T00:39:49.586Z,99.90
2023-02-01T00:42:20.399Z,99.90
2023-02-01T00:44:51.308Z,99.90
2023-02-01T00:47:22.017Z,99.90
2023-02-01T00:49:52.770Z,99.90
2023-02-01T00:52:26.076Z,99.90
2023-02-01T00:54:59.270Z,99.90
2023-02-01T00:57:32.107Z,99.90
2023-02-01T01:00:03.059Z,99.90
2023-02-01T01:02:33.803Z,99.90
2023-02-01T01:05:04.754Z,99.90
2023-02-01T01:07:38.242Z,99.90
2023-02-01T01:10:11.383Z,99.90
2023-02-01T01:12:42.483Z,99.90
2023-02-01T01:15:13.997Z,99.90
2023-02-01T01:17:44.793Z,99.90
2023-02-01T01:20:17.771Z,99.90
2023-02-01T01:22:51.852Z,96.60
2023-02-01T01:25:22.701Z,91.70
2023-02-01T01:28:09.682Z,91.50
2023-02-01T01:30:40.573Z,88.30
2023-02-01T01:33:11.429Z,89.30
2023-02-01T01:35:42.494Z,89.70
2023-02-01T01:38:19.241Z,90.20
2023-02-01T01:40:53.528Z,86.50
2023-02-01T01:43:24.957Z,85.70
2023-02-01T01:45:55.675Z,85.20
2023-02-01T01:48:31.577Z,83.40
2023-02-01T01:51:06.723Z,83.60
2023-02-01T01:53:48.449Z,84.90
2023-02-01T01:56:19.617Z,85.20
2023-02-01T01:58:50.419Z,81.30
2023-02-01T02:01:21.244Z,83.50
2023-02-01T02:03:52.198Z,85.50
2023-02-01T02:06:31.602Z,85.40
2023-02-01T02:09:07.246Z,82.70
2023-02-01T02:11:38.332Z,82.80
2023-02-01T02:14:15.728Z,84.10
2023-02-01T02:16:58.094Z,84.00
2023-02-01T02:19:49.797Z,84.80
2023-02-01T02:22:47.333Z,82.00
2023-02-01T02:25:44.466Z,84.80
2023-02-01T02:28:33.875Z,83.10
2023-02-01T02:31:27.887Z,83.00
2023-02-01T02:34:13.103Z,86.30
2023-02-01T02:36:52.359Z,84.90
2023-02-01T02:39:33.187Z,83.70
2023-02-01T02:42:25.620Z,81.50
2023-02-01T02:45:17.797Z,79.40
2023-02-01T02:47:58.683Z,80.20
2023-02-01T02:50:52.667Z,80.70
2023-02-01T02:53:41.640Z,78.80
2023-02-01T02:56:31.092Z,76.00
2023-02-01T02:59:15.066Z,75.10
2023-02-01T03:01:59.310Z,71.60
2023-02-01T03:04:30.477Z,72.60
2023-02-01T03:07:17.904Z,70.20
2023-02-01T03:09:51.149Z,71.10
2023-02-01T03:12:35.697Z,69.20
2023-02-01T03:15:13.616Z,67.30
2023-02-01T03:17:47.001Z,64.80
2023-02-01T03:20:21.085Z,64.30
2023-02-01T03:22:57.214Z,63.40
2023-02-01T03:25:32.536Z,62.40
2023-02-01T03:28:11.207Z,63.40
2023-02-01T03:30:45.563Z,60.00
2023-02-01T03:33:26.531Z,61.70
2023-02-01T03:36:11.268Z,58.80
2023-02-01T03:38:52.749Z,59.50
2023-02-01T03:41:38.223Z,59.90
2023-02-01T03:44:17.125Z,56.80
2023-02-01T03:46:53.248Z,57.20
2023-02-01T03:49:30.191Z,56.20
2023-02-01T03:52:02.613Z,55.50
2023-02-01T03:54:37.127Z,55.30
2023-02-01T03:57:13.514Z,56.60
2023-02-01T03:59:44.818Z,55.60
2023-02-01T04:02:18.342Z,55.70
2023-02-01T04:04:49.088Z,56.30
2023-02-01T04:07:21.945Z,55.20
2023-02-01T04:09:55.271Z,55.20
2023-02-01T04:12:26.355Z,55.10
2023-02-01T04:14:57.404Z,56.10
2023-02-01T04:17:31.103Z,54.80
2023-02-01T04:20:02.292Z,55.10
2023-02-01T04:22:33.059Z,55.70
2023-02-01T04:25:07.101Z,56.30
2023-02-01T04:30:11.389Z,55.90
2023-02-01T04:32:42.694Z,56.80
2023-02-01T04:35:13.631Z,56.20
2023-02-01T04:37:44.486Z,56.80
2023-02-01T04:40:18.231Z,57.30
2023-02-01T04:42:49.065Z,56.70
2023-02-01T04:45:19.966Z,57.30
2023-02-01T04:47:51.553Z,58.40
2023-02-01T04:50:22.760Z,57.60
2023-02-01T04:52:54.001Z,57.30
2023-02-01T04:55:27.372Z,60.00
2023-02-01T04:57:58.159Z,59.20
2023-02-01T05:00:28.914Z,60.00
2023-02-01T05:02:59.913Z,60.00
2023-02-01T05:05:31.247Z,60.00
2023-02-01T05:08:02.173Z,60.00
2023-02-01T05:10:35.437Z,60.10
2023-02-01T05:13:18.728Z,60.10
2023-02-01T05:15:49.838Z,60.10
2023-02-01T05:18:20.651Z,61.00
2023-02-01T05:20:51.814Z,60.10
2023-02-01T05:23:22.540Z,60.80
2023-02-01T05:25:55.880Z,60.30
2023-02-01T05:28:26.693Z,61.50
2023-02-01T05:30:58.058Z,62.30
2023-02-01T05:33:29.026Z,63.40
2023-02-01T05:35:59.823Z,62.50
2023-02-01T05:38:30.743Z,62.60
2023-02-01T05:41:04.259Z,63.40
2023-02-01T05:43:34.981Z,63.90
2023-02-01T05:46:05.948Z,62.40
2023-02-01T05:48:36.699Z,62.60
2023-02-01T05:51:07.613Z,61.70
2023-02-01T05:53:38.734Z,62.50
2023-02-01T05:56:12.302Z,62.30
2023-02-01T05:58:43.109Z,62.90
2023-02-01T06:01:13.931Z,62.40
2023-02-01T06:03:44.816Z,61.10
2023-02-01T06:06:15.628Z,62.80
2023-02-01T06:08:46.434Z,63.60
2023-02-01T06:11:31.749Z,63.50
2023-02-01T06:14:03.554Z,63.60
2023-02-01T06:16:34.315Z,64.70
2023-02-01T06:19:07.513Z,64.20
2023-02-01T06:21:41.368Z,64.50
2023-02-01T06:24:12.605Z,65.30
2023-02-01T06:26:47.824Z,65.10
2023-02-01T06:29:18.674Z,65.20
2023-02-01T06:31:49.415Z,64.70
2023-02-01T06:34:22.211Z,64.60
2023-02-01T06:36:54.662Z,64.10
2023-02-01T06:39:25.437Z,64.20
2023-02-01T06:41:58.722Z,63.20
2023-02-01T06:44:29.507Z,63.50
2023-02-01T06:47:00.526Z,64.10
2023-02-01T06:49:31.675Z,64.00
2023-02-01T06:52:03.375Z,62.90
2023-02-01T06:54:35.441Z,63.20
2023-02-01T06:57:08.894Z,63.10
2023-02-01T06:59:39.688Z,62.90
2023-02-01T07:02:14.396Z,62.60
2023-02-01T07:04:45.287Z,61.60
2023-02-01T07:07:16.244Z,60.30
2023-02-01T07:09:47.221Z,62.10
2023-02-01T07:12:23.558Z,62.50
2023-02-01T07:14:54.953Z,62.70
2023-02-01T07:17:25.787Z,62.50
2023-02-01T07:19:56.503Z,60.20
2023-02-01T07:22:27.236Z,60.10
2023-02-01T07:24:58.051Z,60.80
2023-02-01T07:27:31.554Z,60.00
2023-02-01T07:30:04.861Z,61.90
2023-02-01T07:32:36.182Z,60.10
2023-02-01T07:35:07.645Z,59.40
2023-02-01T07:37:41.471Z,58.80
2023-02-01T07:40:13.973Z,59.30
2023-02-01T07:42:47.280Z,59.50
2023-02-01T07:45:21.914Z,60.30
2023-02-01T07:47:54.856Z,57.80
2023-02-01T07:50:26.188Z,60.20
2023-02-01T07:52:57.365Z,59.40
2023-02-01T07:55:28.468Z,59.90
2023-02-01T07:58:03.509Z,60.30
2023-02-01T08:00:46.825Z,60.20
2023-02-01T08:03:17.598Z,60.30
2023-02-01T08:05:48.683Z,60.30
2023-02-01T08:08:20.817Z,60.30
2023-02-01T08:10:55.646Z,60.20
2023-02-01T08:13:31.805Z,60.00
2023-02-01T08:16:08.649Z,58.80
2023-02-01T08:18:40.622Z,58.90
2023-02-01T08:21:13.548Z,59.70
2023-02-01T08:23:45.166Z,58.80
2023-02-01T08:26:19.041Z,58.70
2023-02-01T08:28:55.270Z,58.60
2023-02-01T08:31:27.865Z,60.30
2023-02-01T08:34:00.492Z,60.30
2023-02-01T08:36:33.197Z,60.40
2023-02-01T08:39:06.785Z,60.20
2023-02-01T08:41:40.113Z,60.00
2023-02-01T08:44:13.472Z,60.40
2023-02-01T08:46:44.140Z,60.40
2023-02-01T08:49:14.985Z,60.40
2023-02-01T08:51:45.740Z,60.40
2023-02-01T08:54:16.579Z,60.40
2023-02-01T08:56:47.375Z,59.50
2023-02-01T08:59:23.790Z,60.50
2023-02-01T09:01:55.426Z,61.80
2023-02-01T09:04:26.404Z,60.70
2023-02-01T09:06:57.892Z,60.00
2023-02-01T09:09:31.147Z,60.70
2023-02-01T09:12:01.900Z,59.90
2023-02-01T09:14:35.396Z,60.40
2023-02-01T09:17:09.400Z,59.40
2023-02-01T09:19:43.086Z,58.70
2023-02-01T09:22:13.969Z,59.00
2023-02-01T09:24:44.734Z,58.50
2023-02-01T09:27:15.734Z,57.50
2023-02-01T09:29:53.215Z,57.80
2023-02-01T09:32:25.036Z,57.50
2023-02-01T09:34:56.427Z,56.80
2023-02-01T09:37:27.232Z,55.00
2023-02-01T09:39:57.982Z,56.20
2023-02-01T09:42:47.825Z,55.70
2023-02-01T09:45:27.794Z,56.40
2023-02-01T09:48:02.013Z,56.70
2023-02-01T09:50:38.528Z,55.40
2023-02-01T09:53:15.723Z,54.80
2023-02-01T09:55:49.961Z,53.40
2023-02-01T09:58:26.777Z,51.90
2023-02-01T10:01:04.166Z,51.70
2023-02-01T10:03:38.553Z,50.90
2023-02-01T10:06:34.540Z,50.90
2023-02-01T10:09:24.556Z,50.90
2023-02-01T10:12:14.134Z,52.00
2023-02-01T10:15:01.483Z,52.60
2023-02-01T10:17:52.900Z,52.00
2023-02-01T10:20:29.277Z,50.90
2023-02-01T10:23:31.232Z,50.40
2023-02-01T10:26:08.755Z,50.90
2023-02-01T10:28:42.504Z,50.70
2023-02-01T10:31:15.089Z,51.00
2023-02-01T10:33:52.247Z,50.90
2023-02-01T10:36:29.182Z,49.40
2023-02-01T10:39:02.228Z,50.20
2023-02-01T10:41:38.537Z,49.50
2023-02-01T10:44:15.348Z,49.60
2023-02-01T10:46:46.637Z,48.60
2023-02-01T10:49:24.510Z,48.20
2023-02-01T10:51:59.752Z,48.00
2023-02-01T10:54:39.241Z,47.80
2023-02-01T10:57:12.342Z,48.70
2023-02-01T10:59:45.018Z,48.10
2023-02-01T11:02:28.985Z,47.00
2023-02-01T11:05:10.214Z,45.80
2023-02-01T11:07:42.772Z,45.70
2023-02-01T11:10:41.829Z,45.50
2023-02-01T11:13:18.843Z,45.40
2023-02-01T11:15:58.305Z,46.00
2023-02-01T11:18:31.831Z,45.20
2023-02-01T11:21:06.385Z,44.90
2023-02-01T11:23:43.509Z,45.60
2023-02-01T11:26:17.215Z,45.40
2023-02-01T11:28:56.136Z,45.80
2023-02-01T11:31:28.634Z,44.40
2023-02-01T11:34:04.264Z,43.50
2023-02-01T11:36:40.047Z,44.20
2023-02-01T11:39:30.583Z,44.20
2023-02-01T11:42:07.489Z,43.10
2023-02-01T11:44:41.863Z,43.10
2023-02-01T11:47:29.733Z,44.20
2023-02-01T11:50:02.664Z,43.20
2023-02-01T11:52:56.035Z,43.70
2023-02-01T11:55:46.579Z,42.70
2023-02-01T11:58:31.612Z,41.30
2023-02-01T12:01:24.087Z,41.30
2023-02-01T12:04:19.800Z,41.20
2023-02-01T12:06:55.522Z,43.20
2023-02-01T12:09:44.140Z,47.90
2023-02-01T12:12:27.089Z,51.20
2023-02-01T12:15:13.906Z,53.30
2023-02-01T12:18:03.792Z,60.40
2023-02-01T12:21:03.705Z,68.60
2023-02-01T12:23:58.207Z,72.20
2023-02-01T12:26:58.461Z,75.80
2023-02-01T12:29:57.533Z,80.70
2023-02-01T12:32:42.867Z,80.70
2023-02-01T12:35:23.745Z,79.10
2023-02-01T12:38:10.238Z,79.00
2023-02-01T12:40:56.668Z,79.70
2023-02-01T12:43:39.538Z,80.60
2023-02-01T12:46:14.840Z,76.10
2023-02-01T12:49:00.302Z,77.20
2023-02-01T12:51:35.752Z,76.80
2023-02-01T12:54:14.192Z,77.30
2023-02-01T12:56:48.905Z,73.90
2023-02-01T12:59:28.957Z,71.10
2023-02-01T13:02:08.238Z,69.70
2023-02-01T13:04:53.779Z,70.40
2023-02-01T13:07:29.373Z,70.00
2023-02-01T13:10:05.588Z,69.40
2023-02-01T13:12:40.789Z,69.10
2023-02-01T13:15:21.249Z,68.20
2023-02-01T13:17:56.504Z,71.20
2023-02-01T13:20:32.218Z,71.10
2023-02-01T13:23:07.882Z,73.30
2023-02-01T13:25:47.480Z,75.80
2023-02-01T13:28:44.575Z,73.10
2023-02-01T13:31:48.454Z,71.00
2023-02-01T13:34:44.737Z,71.10
2023-02-01T13:37:38.306Z,67.60
2023-02-01T13:40:21.834Z,68.50
2023-02-01T13:42:55.896Z,66.70
2023-02-01T13:45:30.145Z,64.00
2023-02-01T13:48:08.963Z,66.10
2023-02-01T13:50:42.047Z,62.40
2023-02-01T13:53:21.823Z,61.30
2023-02-01T13:56:00.462Z,59.90
2023-02-01T13:58:37.467Z,60.20
2023-02-01T14:01:47.501Z,58.30
2023-02-01T14:04:52.052Z,57.60
2023-02-01T14:07:25.397Z,57.70
2023-02-01T14:09:56.253Z,56.30
2023-02-01T14:12:47.279Z,56.50
2023-02-01T14:15:30.319Z,57.10
2023-02-01T14:18:04.703Z,56.20
2023-02-01T14:20:54.387Z,57.60
2023-02-01T14:23:34.302Z,57.20
2023-02-01T14:26:24.352Z,58.50
2023-02-01T14:28:59.603Z,58.40
2023-02-01T14:31:48.568Z,56.30
2023-02-01T14:34:24.202Z,56.60
2023-02-01T14:37:01.877Z,57.80
2023-02-01T14:39:41.313Z,61.10
2023-02-01T14:42:25.966Z,62.90
2023-02-01T14:45:00.100Z,66.00
2023-02-01T14:47:36.430Z,66.90
2023-02-01T14:50:34.610Z,68.70
2023-02-01T14:53:29.859Z,66.50
2023-02-01T14:56:05.516Z,67.90
2023-02-01T14:58:43.499Z,66.30
2023-02-01T15:01:25.391Z,61.90
2023-02-01T15:04:06.255Z,60.00
2023-02-01T15:06:42.151Z,61.30
2023-02-01T15:09:18.561Z,60.10
2023-02-01T15:12:00.656Z,59.30
2023-02-01T15:14:33.563Z,59.70
2023-02-01T15:17:04.905Z,59.40
2023-02-01T15:19:35.726Z,58.70
2023-02-01T15:22:06.678Z,59.50
2023-02-01T15:24:40.040Z,59.10
2023-02-01T15:27:13.279Z,59.00
2023-02-01T15:29:44.216Z,60.20
2023-02-01T15:32:35.376Z,67.20
2023-02-01T15:35:06.501Z,69.00
2023-02-01T15:37:37.349Z,67.80
2023-02-01T15:40:25.078Z,64.30
2023-02-01T15:42:57.755Z,64.70
2023-02-01T15:45:38.645Z,61.90
2023-02-01T15:48:09.478Z,63.70
2023-02-01T15:50:43.967Z,61.30
2023-02-01T15:53:22.053Z,59.40
2023-02-01T15:56:01.113Z,58.20
2023-02-01T15:58:32.910Z,57.10
2023-02-01T16:01:07.702Z,57.00
2023-02-01T16:03:42.258Z,54.80
2023-02-01T16:06:30.052Z,55.20
2023-02-01T16:09:06.646Z,52.80
2023-02-01T16:11:45.435Z,54.10
2023-02-01T16:14:19.760Z,56.10
2023-02-01T16:16:53.808Z,56.50
2023-02-01T16:19:28.895Z,55.60
2023-02-01T16:22:00.713Z,56.00
2023-02-01T16:24:33.506Z,54.90
2023-02-01T16:27:10.881Z,54.10
2023-02-01T16:29:42.864Z,53.80
2023-02-01T16:32:20.117Z,53.40
2023-02-01T16:34:52.071Z,51.60
2023-02-01T16:37:29.094Z,52.30
2023-02-01T16:39:59.847Z,51.60
2023-02-01T16:42:33.346Z,52.70
2023-02-01T16:45:08.434Z,55.30
2023-02-01T16:47:43.091Z,58.90
2023-02-01T16:50:23.505Z,61.30
2023-02-01T16:52:55.337Z,64.80
2023-02-01T16:55:27.117Z,70.60
2023-02-01T16:58:00.650Z,76.30
2023-02-01T17:00:32.112Z,80.10
2023-02-01T17:03:02.881Z,87.40
2023-02-01T17:05:34.542Z,87.10
2023-02-01T17:08:10.715Z,92.40
2023-02-01T17:10:42.360Z,97.50
2023-02-01T17:13:18.723Z,99.90
2023-02-01T17:15:56.480Z,99.90
2023-02-01T17:18:31.524Z,99.90
2023-02-01T17:21:03.265Z,99.90
2023-02-01T17:23:37.778Z,99.90
2023-02-01T17:26:12.027Z,99.90
2023-02-01T17:28:45.470Z,99.90
2023-02-01T17:31:18.541Z,99.90
2023-02-01T17:33:49.695Z,99.90
2023-02-01T17:36:21.138Z,99.90
2023-02-01T17:39:05.022Z,99.90
2023-02-01T17:41:37.521Z,99.90
2023-02-01T17:44:13.472Z,99.90
2023-02-01T17:46:46.070Z,99.90
2023-02-01T17:49:16.960Z,99.90
2023-02-01T17:51:47.835Z,99.90
2023-02-01T17:54:20.074Z,99.90
2023-02-01T17:56:52.539Z,99.90
2023-02-01T17:59:29.128Z,99.90
2023-02-01T18:02:01.122Z,99.90
2023-02-01T18:04:31.968Z,99.90
2023-02-01T18:07:03.027Z,99.90
2023-02-01T18:09:33.876Z,99.90
2023-02-01T18:12:05.981Z,99.90
2023-02-01T18:14:39.594Z,99.90
2023-02-01T18:17:12.937Z,99.90
2023-02-01T18:19:44.054Z,99.90
2023-02-01T18:22:21.226Z,99.90
2023-02-01T18:24:53.524Z,99.90
2023-02-01T18:27:25.708Z,99.90
2023-02-01T18:30:00.139Z,99.90
2023-02-01T18:32:33.322Z,99.90
2023-02-01T18:35:04.092Z,99.90
2023-02-01T18:37:34.809Z,99.90
2023-02-01T18:40:07.277Z,99.90
2023-02-01T18:42:38.000Z,99.90
2023-02-01T18:45:25.825Z,99.90
2023-02-01T18:47:59.287Z,99.90
2023-02-01T18:50:56.580Z,99.90
2023-02-01T18:53:29.773Z,99.90
2023-02-01T18:56:02.179Z,99.90
2023-02-01T18:58:33.121Z,99.90
2023-02-01T19:01:17.501Z,99.90
2023-02-01T19:03:59.782Z,99.90
2023-02-01T19:06:36.616Z,99.90
2023-02-01T19:09:07.448Z,99.90
2023-02-01T19:11:38.244Z,99.90
2023-02-01T19:14:09.012Z,99.90
2023-02-01T19:16:42.670Z,99.90
2023-02-01T19:19:13.753Z,99.90
2023-02-01T19:21:44.566Z,99.90
2023-02-01T19:24:17.419Z,99.90
2023-02-01T19:26:50.349Z,99.90
2023-02-01T19:29:21.128Z,99.90
2023-02-01T19:31:54.761Z,99.90
2023-02-01T19:34:26.971Z,99.90
2023-02-01T19:36:57.882Z,99.90
2023-02-01T19:39:28.755Z,99.90
2023-02-01T19:42:01.770Z,99.90
2023-02-01T19:44:33.597Z,99.90
2023-02-01T19:47:10.206Z,99.90
2023-02-01T19:49:41.172Z,99.90
2023-02-01T19:52:15.011Z,99.90
2023-02-01T19:54:48.758Z,99.90
2023-02-01T19:57:19.595Z,99.90
2023-02-01T19:59:50.435Z,99.90
2023-02-01T20:02:23.838Z,99.90
2023-02-01T20:04:54.625Z,99.90
2023-02-01T20:07:25.660Z,99.90
2023-02-01T20:09:56.551Z,99.90
2023-02-01T20:12:27.657Z,99.90
2023-02-01T20:14:58.379Z,99.90
2023-02-01T20:17:32.900Z,99.90
2023-02-01T20:20:03.733Z,99.90
2023-02-01T20:22:34.710Z,99.90
2023-02-01T20:25:11.238Z,99.90
2023-02-01T20:27:42.816Z,99.90
2023-02-01T20:30:19.967Z,99.90
2023-02-01T20:32:56.188Z,99.90
2023-02-01T20:35:27.082Z,99.90
2023-02-01T20:37:59.084Z,99.90
2023-02-01T20:40:31.355Z,99.90
2023-02-01T20:43:02.527Z,99.90
2023-02-01T20:45:33.566Z,99.90
2023-02-01T20:48:07.019Z,99.90
2023-02-01T20:50:38.386Z,99.90
2023-02-01T20:53:12.796Z,99.90
2023-02-01T20:55:54.350Z,99.90
2023-02-01T20:58:27.615Z,99.90
2023-02-01T21:00:58.646Z,99.90
2023-02-01T21:03:39.647Z,99.90
2023-02-01T21:06:13.100Z,99.90
2023-02-01T21:08:46.273Z,99.90
2023-02-01T21:11:20.934Z,99.90
2023-02-01T21:13:55.728Z,99.90
2023-02-01T21:16:30.875Z,99.90
2023-02-01T21:19:04.325Z,99.90
2023-02-01T21:21:35.154Z,99.90
2023-02-01T21:24:07.748Z,99.90
2023-02-01T21:26:43.485Z,99.90
2023-02-01T21:29:17.690Z,99.90
2023-02-01T21:31:48.644Z,99.90
2023-02-01T21:34:21.977Z,99.90
2023-02-01T21:36:55.790Z,99.90
2023-02-01T21:39:27.743Z,99.90
2023-02-01T21:42:11.078Z,99.90
2023-02-01T21:44:46.252Z,99.90
2023-02-01T21:47:19.405Z,99.90
2023-02-01T21:49:56.956Z,99.90
2023-02-01T21:52:28.183Z,99.90
2023-02-01T21:54:59.849Z,99.90
2023-02-01T21:57:34.170Z,99.90
2023-02-01T22:00:05.559Z,99.90
2023-02-01T22:02:36.572Z,99.90
2023-02-01T22:05:11.272Z,99.90
2023-02-01T22:07:42.081Z,99.90
2023-02-01T22:10:15.143Z,99.90
2023-02-01T22:12:45.863Z,99.90
2023-02-01T22:15:18.035Z,99.90
2023-02-01T22:17:48.831Z,99.90
2023-02-01T22:20:22.430Z,99.90
2023-02-01T22:22:53.256Z,99.90
2023-02-01T22:25:24.809Z,99.90
2023-02-01T22:28:30.131Z,99.90
2023-02-01T22:30:50.100Z,99.90
2023-02-01T22:33:25.676Z,99.90
2023-02-01T22:35:59.081Z,99.90
2023-02-01T22:38:32.772Z,99.90
2023-02-01T22:41:05.677Z,99.90
2023-02-01T22:43:37.076Z,99.90
2023-02-01T22:46:10.225Z,99.90
2023-02-01T22:48:42.544Z,99.90
2023-02-01T22:51:20.020Z,99.90
2023-02-01T22:53:59.277Z,99.90
2023-02-01T22:56:32.839Z,99.90
2023-02-01T22:59:05.620Z,99.90
2023-02-01T23:01:37.329Z,99.90
2023-02-01T23:04:14.584Z,99.90
2023-02-01T23:06:50.937Z,99.90
2023-02-01T23:09:25.155Z,99.90
2023-02-01T23:11:56.910Z,99.90
2023-02-01T23:14:27.739Z,99.90
2023-02-01T23:16:58.479Z,99.90
2023-02-01T23:19:29.214Z,99.90
2023-02-01T23:22:02.776Z,99.90
2023-02-01T23:24:33.606Z,99.90
2023-02-01T23:27:04.376Z,99.90
2023-02-01T23:29:35.106Z,99.90
2023-02-01T23:32:06.011Z,99.90
2023-02-01T23:34:36.889Z,99.90
2023-02-01T23:37:13.373Z,99.90
2023-02-01T23:39:44.096Z,99.90
2023-02-01T23:42:14.799Z,99.90
2023-02-01T23:44:43.353Z,99.90
2023-02-01T23:47:14.815Z,99.90
2023-02-01T23:49:45.704Z,99.90
2023-02-01T23:52:19.045Z,99.90
2023-02-01T23:54:49.987Z,99.90
2023-02-01T23:57:20.979Z,99.90
2023-02-01T23:59:51.696Z,99.90
